Time;durP1;ratioP1;P1;durP2;ratioP2;P2;SDS_P1;SDS_P2;PMS_P1;PMS_P2;Temp;Humidity;BMP_temperature;BMP_pressure;BME280_temperature;BME280_humidity;BME280_pressure;Samples;Min_cycle;Max_cycle;Signal;HPM_P1;HPM_P2
2022/11/06 00:00:44;;;;;;;3.85;1.90;;;16.10;82.80;;;;;;5052987;28;20021;-75
2022/11/06 00:03:10;;;;;;;4.60;2.08;;;16.10;82.70;;;;;;5042749;28;20451;-75
2022/11/06 00:08:29;;;;;;;4.18;1.83;;;16.10;82.70;;;;;;5045243;28;20038;-75
2022/11/06 00:10:55;;;;;;;4.57;1.90;;;16.10;82.90;;;;;;5054731;28;20028;-74
2022/11/06 00:13:21;;;;;;;4.60;1.80;;;16.10;83.00;;;;;;5061968;28;20045;-74
2022/11/06 00:15:46;;;;;;;3.88;1.77;;;16.10;82.80;;;;;;5074763;28;20052;-75
2022/11/06 00:18:12;;;;;;;4.72;1.90;;;16.10;82.90;;;;;;5047243;28;20029;-74
2022/11/06 00:20:37;;;;;;;4.88;1.80;;;16.00;82.80;;;;;;5048261;28;20519;-74
2022/11/06 00:23:03;;;;;;;4.38;2.00;;;16.10;82.80;;;;;;5064108;28;20107;-75
2022/11/06 00:25:28;;;;;;;4.97;2.08;;;16.20;82.70;;;;;;5061659;28;20492;-75
2022/11/06 00:27:54;;;;;;;3.35;1.70;;;16.10;82.20;;;;;;5064610;28;20037;-75
2022/11/06 00:30:19;;;;;;;4.47;1.80;;;16.20;82.20;;;;;;5062103;28;20036;-75
2022/11/06 00:32:46;;;;;;;4.60;1.85;;;16.10;82.00;;;;;;5043020;28;20033;-74
2022/11/06 00:35:12;;;;;;;3.65;1.75;;;16.10;82.20;;;;;;5045292;28;20108;-74
2022/11/06 00:37:37;;;;;;;3.53;1.75;;;16.10;82.20;;;;;;5044599;28;20751;-76
2022/11/06 00:40:04;;;;;;;4.38;1.80;;;16.10;82.30;;;;;;5061184;28;20467;-74
2022/11/06 00:42:29;;;;;;;3.53;1.88;;;16.10;82.60;;;;;;5044583;28;20065;-75
2022/11/06 00:44:55;;;;;;;3.47;1.75;;;16.10;82.80;;;;;;5044614;28;20110;-75
2022/11/06 00:47:21;;;;;;;4.63;1.95;;;16.10;82.70;;;;;;5061504;28;20391;-75
2022/11/06 00:49:46;;;;;;;4.00;1.60;;;16.10;82.70;;;;;;5051654;28;20886;-74
2022/11/06 00:52:12;;;;;;;3.88;1.85;;;16.10;82.60;;;;;;5048040;28;20036;-74
2022/11/06 00:54:37;;;;;;;3.60;1.90;;;16.10;82.50;;;;;;5047810;28;20496;-75
2022/11/06 00:57:03;;;;;;;4.10;1.80;;;16.10;82.80;;;;;;5048845;28;20724;-74
2022/11/06 00:59:29;;;;;;;3.58;1.67;;;16.10;82.70;;;;;;5048137;28;20035;-74
2022/11/06 01:01:54;;;;;;;3.58;1.70;;;16.00;82.60;;;;;;5059260;28;20029;-75
2022/11/06 01:04:21;;;;;;;3.75;1.83;;;16.00;82.50;;;;;;5067677;28;20028;-75
2022/11/06 01:06:52;;;;;;;3.88;2.00;;;16.00;82.70;;;;;;5067236;28;20039;-75
2022/11/06 01:09:20;;;;;;;3.22;1.55;;;16.00;82.50;;;;;;5068060;28;20036;-75
2022/11/06 01:11:49;;;;;;;4.78;1.90;;;16.00;82.50;;;;;;5059666;28;20035;-74
2022/11/06 01:14:16;;;;;;;4.72;1.90;;;16.00;82.50;;;;;;5065367;28;20404;-75
2022/11/06 01:16:42;;;;;;;3.65;1.80;;;16.00;82.80;;;;;;5057608;28;20308;-75
2022/11/06 01:19:11;;;;;;;4.38;2.30;;;16.00;82.90;;;;;;5066095;28;20029;-75
2022/11/06 01:21:38;;;;;;;2.95;1.70;;;16.10;83.00;;;;;;5067348;28;20153;-74
2022/11/06 01:24:08;;;;;;;3.92;1.67;;;16.10;83.00;;;;;;5045554;28;20025;-74
2022/11/06 01:26:34;;;;;;;4.82;2.00;;;16.10;82.90;;;;;;5047084;28;20090;-75
2022/11/06 01:29:00;;;;;;;3.45;1.75;;;16.10;82.70;;;;;;5047546;28;20029;-74
2022/11/06 01:31:28;;;;;;;3.30;1.55;;;16.10;82.80;;;;;;5048445;28;20508;-74
2022/11/06 01:33:58;;;;;;;3.38;2.00;;;16.10;82.60;;;;;;5046628;28;20029;-75
2022/11/06 01:36:24;;;;;;;5.00;2.10;;;16.10;82.30;;;;;;5067486;28;20074;-74
2022/11/06 01:38:52;;;;;;;4.22;1.90;;;16.10;82.00;;;;;;5066045;28;20665;-74
2022/11/06 01:41:21;;;;;;;2.50;1.50;;;16.10;82.30;;;;;;5064176;28;20025;-74
2022/11/06 01:43:50;;;;;;;3.58;1.70;;;16.10;82.70;;;;;;5066708;28;20038;-74
2022/11/06 01:46:18;;;;;;;3.97;2.08;;;16.00;82.70;;;;;;5065458;28;20510;-74
2022/11/06 01:48:48;;;;;;;3.80;1.88;;;16.00;82.80;;;;;;5067648;28;20025;-75
2022/11/06 01:51:14;;;;;;;4.45;1.98;;;16.00;82.80;;;;;;5056818;28;20025;-75
2022/11/06 01:53:40;;;;;;;4.28;1.80;;;16.10;83.00;;;;;;5046784;28;20045;-74
2022/11/06 01:56:08;;;;;;;3.95;1.80;;;16.00;82.90;;;;;;5047748;28;20029;-75
2022/11/06 01:58:36;;;;;;;4.00;1.90;;;16.00;82.90;;;;;;5045303;28;20959;-75
2022/11/06 02:01:02;;;;;;;3.88;1.80;;;16.00;82.90;;;;;;5047767;28;20035;-74
2022/11/06 02:03:28;;;;;;;4.55;1.85;;;16.00;83.00;;;;;;5045318;28;20032;-74
2022/11/06 02:05:55;;;;;;;3.70;1.90;;;16.00;82.90;;;;;;5065023;28;20364;-75
2022/11/06 02:08:22;;;;;;;3.97;1.85;;;16.00;82.90;;;;;;5054820;28;20031;-75
2022/11/06 02:10:48;;;;;;;3.80;1.75;;;16.00;83.00;;;;;;5047606;28;20064;-74
2022/11/06 02:13:19;;;;;;;2.88;1.80;;;16.00;83.00;;;;;;5052897;28;20131;-75
2022/11/06 02:16:01;;;;;;;4.18;2.10;;;16.00;83.00;;;;;;5050412;28;20032;-75
2022/11/06 02:18:26;;;;;;;4.28;1.95;;;16.00;83.00;;;;;;5045443;28;20029;-75
2022/11/06 02:21:19;;;;;;;3.25;1.75;;;16.00;83.10;;;;;;5047682;28;20033;-75
2022/11/06 02:24:06;;;;;;;3.22;1.60;;;16.00;83.10;;;;;;5064722;28;20035;-75
2022/11/06 02:27:10;;;;;;;5.18;1.77;;;16.00;83.00;;;;;;5063260;28;20518;-75
2022/11/06 02:29:41;;;;;;;3.90;2.00;;;16.00;83.10;;;;;;5066298;28;20544;-75
2022/11/06 02:32:11;;;;;;;3.38;2.03;;;16.00;83.10;;;;;;5064456;28;20089;-74
2022/11/06 02:34:39;;;;;;;4.05;1.88;;;16.00;83.00;;;;;;5063071;28;20067;-75
2022/11/06 02:37:12;;;;;;;3.20;1.70;;;16.00;82.90;;;;;;5066327;28;20034;-74
2022/11/06 02:39:40;;;;;;;3.47;1.85;;;16.00;82.80;;;;;;5065266;28;20442;-75
2022/11/06 02:42:09;;;;;;;4.05;1.60;;;16.00;82.90;;;;;;5062952;28;20056;-75
2022/11/06 02:44:37;;;;;;;2.97;1.80;;;16.00;82.90;;;;;;5065623;28;20361;-75
2022/11/06 02:47:09;;;;;;;2.75;1.70;;;16.00;82.90;;;;;;5051532;28;20036;-75
2022/11/06 02:49:53;;;;;;;3.47;1.70;;;16.00;82.90;;;;;;5044821;28;20068;-75
2022/11/06 02:52:34;;;;;;;2.97;1.80;;;16.00;83.00;;;;;;5066002;28;20039;-75
2022/11/06 02:55:07;;;;;;;3.95;1.70;;;16.00;83.00;;;;;;5065911;28;20106;-75
2022/11/06 02:57:36;;;;;;;3.13;1.70;;;16.00;83.00;;;;;;5089301;28;20036;-75
2022/11/06 03:00:09;;;;;;;2.97;1.77;;;16.00;83.00;;;;;;5045788;28;20036;-74
2022/11/06 03:02:43;;;;;;;3.13;1.80;;;15.90;83.00;;;;;;5044820;28;20040;-74
2022/11/06 03:05:12;;;;;;;3.50;1.77;;;15.90;83.00;;;;;;5045653;28;20443;-74
2022/11/06 03:08:10;;;;;;;4.35;1.98;;;15.90;83.00;;;;;;5061410;28;20098;-75
2022/11/06 03:10:48;;;;;;;2.53;1.48;;;15.90;83.10;;;;;;5043514;28;20033;-74
2022/11/06 03:13:23;;;;;;;3.38;1.75;;;15.90;83.10;;;;;;5045744;28;20032;-75
2022/11/06 03:15:55;;;;;;;4.32;1.80;;;16.00;83.10;;;;;;5046485;28;20033;-75
2022/11/06 03:18:33;;;;;;;3.13;1.60;;;15.90;83.00;;;;;;5044135;28;20032;-74
2022/11/06 03:21:20;;;;;;;3.60;2.08;;;15.90;83.00;;;;;;5045452;28;20068;-75
2022/11/06 03:24:00;;;;;;;3.92;1.90;;;15.90;83.10;;;;;;5050053;28;20119;-76
2022/11/06 03:26:34;;;;;;;3.25;1.70;;;15.90;82.80;;;;;;5098054;28;20028;-75
2022/11/06 03:29:11;;;;;;;4.45;1.90;;;15.90;83.20;;;;;;5048222;28;20037;-75
2022/11/06 03:31:45;;;;;;;2.42;1.60;;;15.90;83.10;;;;;;5056475;28;20021;-75
2022/11/06 03:34:16;;;;;;;4.15;1.67;;;15.90;83.00;;;;;;5065068;28;20028;-75
2022/11/06 03:36:47;;;;;;;3.45;1.60;;;16.00;82.80;;;;;;5063696;28;20035;-75
2022/11/06 03:39:18;;;;;;;3.45;1.83;;;16.00;82.90;;;;;;5063969;28;20085;-75
2022/11/06 03:41:56;;;;;;;3.10;1.53;;;15.90;82.90;;;;;;5049045;28;20036;-75
2022/11/06 03:44:25;;;;;;;3.33;1.70;;;16.00;82.80;;;;;;5044691;28;20119;-76
2022/11/06 03:47:06;;;;;;;3.28;1.60;;;16.00;82.70;;;;;;5052243;28;20021;-74
2022/11/06 03:49:38;;;;;;;3.90;1.53;;;15.90;82.90;;;;;;5061048;28;20488;-75
2022/11/06 03:52:12;;;;;;;3.65;1.70;;;16.00;83.00;;;;;;5054111;28;20032;-74
2022/11/06 03:54:45;;;;;;;3.55;1.80;;;15.90;82.90;;;;;;5044073;28;20029;-75
2022/11/06 03:57:19;;;;;;;2.95;1.58;;;15.90;83.00;;;;;;5077210;28;20447;-76
2022/11/06 03:59:49;;;;;;;3.63;1.70;;;15.90;83.10;;;;;;5046909;28;20045;-75
2022/11/06 04:02:16;;;;;;;2.97;1.60;;;15.90;83.00;;;;;;5046010;28;20044;-75
2022/11/06 04:04:49;;;;;;;2.25;1.48;;;15.90;83.00;;;;;;5044543;28;20025;-75
2022/11/06 04:07:32;;;;;;;2.50;1.35;;;15.90;83.10;;;;;;5047385;28;20067;-75
2022/11/06 04:15:44;;;;;;;3.45;1.90;;;15.90;83.10;;;;;;5056688;28;20082;-75
2022/11/06 04:18:17;;;;;;;2.78;1.70;;;15.90;83.10;;;;;;5064760;28;20032;-75
2022/11/06 04:21:26;;;;;;;3.58;1.70;;;15.90;83.20;;;;;;5064385;28;20043;-74
2022/11/06 04:27:27;;;;;;;3.33;1.70;;;15.80;83.00;;;;;;5068739;28;20063;-74
2022/11/06 04:30:10;;;;;;;2.95;1.58;;;15.80;83.00;;;;;;5068639;28;20498;-74
2022/11/06 04:32:58;;;;;;;3.22;1.60;;;15.80;83.00;;;;;;5066906;28;20031;-74
2022/11/06 04:35:57;;;;;;;2.75;1.60;;;15.90;83.10;;;;;;5068362;28;20047;-75
2022/11/06 04:38:32;;;;;;;3.30;1.50;;;15.90;83.10;;;;;;5068511;28;20029;-75
2022/11/06 04:41:16;;;;;;;2.85;1.40;;;15.90;82.90;;;;;;5068167;28;20031;-74
2022/11/06 04:43:57;;;;;;;3.03;1.50;;;15.90;82.70;;;;;;5066584;28;20439;-74
2022/11/06 04:46:27;;;;;;;3.38;1.65;;;15.90;82.20;;;;;;5064396;28;20020;-75
2022/11/06 04:48:53;;;;;;;3.10;1.70;;;15.90;82.20;;;;;;5068243;28;20039;-74
2022/11/06 04:51:24;;;;;;;2.03;1.33;;;15.90;82.00;;;;;;5066586;28;20082;-75
2022/11/06 04:53:51;;;;;;;3.83;1.47;;;15.90;82.50;;;;;;5067328;28;20024;-73
2022/11/06 04:56:26;;;;;;;3.72;1.70;;;15.90;82.70;;;;;;5066559;28;20271;-75
2022/11/06 04:58:52;;;;;;;4.22;1.60;;;15.90;82.70;;;;;;5066566;28;20190;-75
2022/11/06 05:01:17;;;;;;;2.85;1.70;;;15.90;82.80;;;;;;5066768;28;20035;-74
2022/11/06 05:03:43;;;;;;;3.47;1.45;;;15.80;82.80;;;;;;5065756;28;20031;-75
2022/11/06 05:06:08;;;;;;;3.67;1.60;;;15.80;82.80;;;;;;5066249;28;20047;-74
2022/11/06 05:08:34;;;;;;;2.58;1.45;;;15.80;82.90;;;;;;5067392;28;20651;-74
2022/11/06 05:10:59;;;;;;;2.92;1.50;;;15.80;83.00;;;;;;5066342;28;20028;-74
2022/11/06 05:13:25;;;;;;;2.03;1.33;;;15.80;83.00;;;;;;5066533;28;20047;-75
2022/11/06 05:15:56;;;;;;;2.20;1.33;;;15.80;83.00;;;;;;5068010;28;20488;-75
2022/11/06 05:18:22;;;;;;;2.97;1.35;;;15.80;83.00;;;;;;5066586;28;20032;-75
2022/11/06 05:20:47;;;;;;;3.13;1.48;;;15.80;83.10;;;;;;5067757;28;20084;-75
2022/11/06 05:23:14;;;;;;;2.72;1.50;;;15.90;83.20;;;;;;5067460;28;20044;-75
2022/11/06 05:25:40;;;;;;;4.53;1.60;;;15.80;83.10;;;;;;5066213;28;20506;-75
2022/11/06 05:28:07;;;;;;;2.63;1.35;;;15.80;83.00;;;;;;5051117;28;20033;-75
2022/11/06 05:30:34;;;;;;;4.20;1.55;;;15.80;83.10;;;;;;5065796;28;20029;-73
2022/11/06 05:32:59;;;;;;;2.20;1.30;;;15.80;83.10;;;;;;5067227;28;20487;-75
2022/11/06 05:35:25;;;;;;;2.60;1.33;;;15.80;83.10;;;;;;5066813;28;20032;-74
2022/11/06 05:37:58;;;;;;;3.08;1.40;;;15.80;83.10;;;;;;5067368;28;20024;-75
2022/11/06 05:40:23;;;;;;;3.55;1.60;;;15.80;83.10;;;;;;5046741;28;20098;-75
2022/11/06 05:42:49;;;;;;;2.22;1.27;;;15.80;82.60;;;;;;5063244;28;20492;-75
2022/11/06 05:45:14;;;;;;;2.50;1.40;;;15.80;82.40;;;;;;5063276;28;20017;-75
2022/11/06 05:47:40;;;;;;;2.45;1.40;;;15.90;82.50;;;;;;5063559;28;20029;-75
2022/11/06 05:50:07;;;;;;;2.90;1.33;;;15.90;82.40;;;;;;5064607;28;20029;-75
2022/11/06 05:52:34;;;;;;;2.60;1.30;;;15.90;83.00;;;;;;5063672;28;20055;-73
2022/11/06 05:54:59;;;;;;;3.13;1.67;;;15.90;82.40;;;;;;5061825;28;20063;-74
2022/11/06 05:57:25;;;;;;;2.58;1.30;;;15.90;82.50;;;;;;5064229;28;20066;-74
2022/11/06 05:59:51;;;;;;;2.65;1.33;;;15.90;82.80;;;;;;5046619;28;20025;-74
2022/11/06 06:02:16;;;;;;;2.45;1.40;;;16.00;82.90;;;;;;5052545;28;20515;-74
2022/11/06 06:04:42;;;;;;;2.83;1.30;;;15.80;82.70;;;;;;5063983;28;20021;-73
2022/11/06 06:07:07;;;;;;;2.65;1.40;;;15.80;82.80;;;;;;5066309;28;20027;-74
2022/11/06 06:09:33;;;;;;;2.05;1.23;;;15.80;83.00;;;;;;5047814;28;20586;-76
2022/11/06 06:11:58;;;;;;;3.22;1.30;;;15.80;83.10;;;;;;5061933;28;20036;-73
2022/11/06 06:14:24;;;;;;;2.92;1.30;;;15.80;83.10;;;;;;5061234;28;20025;-74
2022/11/06 06:16:49;;;;;;;2.05;1.23;;;15.80;83.00;;;;;;5065279;28;20032;-74
2022/11/06 06:19:15;;;;;;;2.17;1.30;;;15.80;83.10;;;;;;5063612;28;20063;-73
2022/11/06 06:21:40;;;;;;;3.03;1.38;;;15.80;83.10;;;;;;5065443;28;20384;-75
2022/11/06 06:24:06;;;;;;;2.50;1.40;;;15.80;83.10;;;;;;5055673;28;20021;-74
2022/11/06 06:26:32;;;;;;;2.25;1.10;;;15.80;83.00;;;;;;5063882;28;20027;-74
2022/11/06 06:28:57;;;;;;;2.30;1.20;;;15.80;83.00;;;;;;5064620;28;20060;-74
2022/11/06 06:31:23;;;;;;;2.40;1.20;;;15.70;83.10;;;;;;5063375;28;20032;-74
2022/11/06 06:33:49;;;;;;;2.42;1.30;;;15.70;83.10;;;;;;5064487;28;20101;-75
2022/11/06 06:36:14;;;;;;;2.28;1.30;;;15.80;83.20;;;;;;5063804;28;20033;-75
2022/11/06 06:38:40;;;;;;;2.30;1.30;;;15.80;83.10;;;;;;5065022;28;20388;-74
2022/11/06 06:41:07;;;;;;;2.30;1.27;;;15.80;83.00;;;;;;5064926;28;20028;-74
2022/11/06 06:43:33;;;;;;;2.20;1.20;;;15.80;83.20;;;;;;5063844;28;20105;-75
2022/11/06 06:46:01;;;;;;;2.50;1.20;;;15.80;83.10;;;;;;5063781;28;20103;-75
2022/11/06 06:48:27;;;;;;;3.08;1.30;;;15.80;83.00;;;;;;5061623;28;20454;-75
2022/11/06 06:50:56;;;;;;;1.83;1.20;;;15.80;82.90;;;;;;5065436;28;20035;-74
2022/11/06 06:53:22;;;;;;;2.28;1.30;;;15.80;82.80;;;;;;5062346;28;20027;-74
2022/11/06 06:55:48;;;;;;;2.97;1.30;;;15.80;82.60;;;;;;5064763;28;20040;-74
2022/11/06 06:58:13;;;;;;;3.63;1.38;;;15.80;82.00;;;;;;5063397;28;20115;-75
2022/11/06 07:00:39;;;;;;;2.30;1.30;;;15.90;82.00;;;;;;5061544;28;20032;-74
2022/11/06 07:03:04;;;;;;;2.72;1.30;;;15.90;82.20;;;;;;5062774;28;20450;-74
2022/11/06 07:05:30;;;;;;;2.92;1.40;;;15.90;81.80;;;;;;5065290;28;20071;-75
2022/11/06 07:07:56;;;;;;;3.17;1.50;;;15.90;82.40;;;;;;5063614;28;20024;-73
2022/11/06 07:10:21;;;;;;;2.38;1.13;;;15.90;81.80;;;;;;5063034;28;20492;-74
2022/11/06 07:12:47;;;;;;;2.28;1.33;;;15.90;81.70;;;;;;5063116;28;20036;-74
2022/11/06 07:15:12;;;;;;;2.60;1.25;;;15.90;81.40;;;;;;5070499;28;20036;-76
2022/11/06 07:17:38;;;;;;;2.63;1.13;;;15.80;81.50;;;;;;5063108;28;20035;-76
2022/11/06 07:20:04;;;;;;;4.05;1.30;;;15.80;81.50;;;;;;5051614;28;20111;-73
2022/11/06 07:22:30;;;;;;;3.25;1.20;;;15.80;81.60;;;;;;5057066;28;20057;-74
2022/11/06 07:24:56;;;;;;;5.30;1.40;;;15.80;81.70;;;;;;5064641;28;20115;-74
2022/11/06 07:27:21;;;;;;;4.43;1.60;;;15.80;82.10;;;;;;5062564;28;20123;-75
2022/11/06 07:29:47;;;;;;;3.60;1.38;;;15.80;81.60;;;;;;5061659;28;20115;-74
2022/11/06 07:32:12;;;;;;;2.58;1.30;;;15.80;81.50;;;;;;5061647;28;20037;-74
2022/11/06 07:34:38;;;;;;;2.85;1.23;;;15.80;81.50;;;;;;5061587;28;20034;-74
2022/11/06 07:37:04;;;;;;;3.55;1.35;;;15.80;81.60;;;;;;5056315;28;20065;-74
2022/11/06 07:39:30;;;;;;;4.15;1.52;;;15.80;81.60;;;;;;5062699;28;20078;-74
2022/11/06 07:41:56;;;;;;;3.78;1.52;;;15.80;81.60;;;;;;5064083;28;20028;-74
2022/11/06 07:44:21;;;;;;;2.28;1.25;;;15.80;81.70;;;;;;5062428;28;20510;-74
2022/11/06 07:46:47;;;;;;;3.00;1.40;;;15.80;81.70;;;;;;5060263;28;20028;-73
2022/11/06 07:49:13;;;;;;;3.38;1.20;;;15.80;81.70;;;;;;5064904;28;20029;-75
2022/11/06 07:51:38;;;;;;;3.60;1.30;;;15.80;81.80;;;;;;5063720;28;20025;-75
2022/11/06 07:54:04;;;;;;;3.35;1.20;;;15.90;82.00;;;;;;5059372;28;20071;-75
2022/11/06 07:56:30;;;;;;;2.80;1.30;;;15.90;81.80;;;;;;5063021;28;20033;-74
2022/11/06 07:58:56;;;;;;;3.28;1.10;;;16.00;81.60;;;;;;5062602;28;20094;-74
2022/11/06 08:01:22;;;;;;;4.22;1.30;;;16.10;81.30;;;;;;5046572;28;20025;-73
2022/11/06 08:03:47;;;;;;;3.40;1.13;;;16.20;81.00;;;;;;5062207;28;20028;-74
2022/11/06 08:06:13;;;;;;;2.38;1.23;;;16.20;80.60;;;;;;5061193;28;20025;-74
2022/11/06 08:08:38;;;;;;;3.08;1.30;;;16.30;80.50;;;;;;5048947;28;20025;-74
2022/11/06 08:11:06;;;;;;;2.13;1.20;;;16.30;80.30;;;;;;5063226;28;20025;-75
2022/11/06 08:13:34;;;;;;;2.85;1.42;;;16.30;80.60;;;;;;5050097;28;20064;-74
2022/11/06 08:16:08;;;;;;;2.30;1.00;;;16.30;80.20;;;;;;5044697;28;20515;-73
2022/11/06 08:18:34;;;;;;;2.45;1.10;;;16.40;80.60;;;;;;5053553;28;20147;-74
2022/11/06 08:21:00;;;;;;;5.38;1.40;;;16.40;79.90;;;;;;5058160;28;20112;-76
2022/11/06 08:23:26;;;;;;;3.88;1.35;;;16.40;80.10;;;;;;5062069;28;20136;-74
2022/11/06 08:25:58;;;;;;;5.80;1.50;;;16.50;79.90;;;;;;5053684;28;20036;-74
2022/11/06 08:28:25;;;;;;;5.00;1.40;;;16.50;79.70;;;;;;5046159;28;20028;-74
2022/11/06 08:30:51;;;;;;;3.92;1.40;;;16.50;79.60;;;;;;5044722;28;20037;-74
2022/11/06 08:33:17;;;;;;;2.25;1.30;;;16.60;79.60;;;;;;5043979;28;20086;-73
2022/11/06 08:35:42;;;;;;;4.57;1.38;;;16.60;79.50;;;;;;5069545;28;20059;-73
2022/11/06 08:38:08;;;;;;;5.57;1.67;;;16.60;79.70;;;;;;5058936;28;20516;-76
2022/11/06 08:40:37;;;;;;;3.45;1.20;;;16.70;79.40;;;;;;5052099;28;20440;-72
2022/11/06 08:43:05;;;;;;;3.05;1.35;;;16.70;79.30;;;;;;5055193;28;20105;-73
2022/11/06 08:45:30;;;;;;;3.70;1.40;;;16.80;79.30;;;;;;5062081;28;20040;-73
2022/11/06 08:48:01;;;;;;;4.00;1.30;;;16.70;79.20;;;;;;5063940;28;20027;-72
2022/11/06 08:50:27;;;;;;;3.85;1.40;;;16.70;79.00;;;;;;5063012;28;20024;-74
2022/11/06 08:52:57;;;;;;;2.78;1.30;;;16.80;79.00;;;;;;5064035;28;20082;-72
2022/11/06 08:55:23;;;;;;;3.88;1.30;;;16.80;79.20;;;;;;5064535;28;20093;-74
2022/11/06 08:57:48;;;;;;;3.20;1.40;;;16.80;79.20;;;;;;5064136;28;20369;-74
2022/11/06 09:00:15;;;;;;;3.03;1.30;;;16.80;79.20;;;;;;5064168;28;20037;-74
2022/11/06 09:02:41;;;;;;;3.78;1.58;;;16.90;79.10;;;;;;5062427;28;20025;-73
2022/11/06 09:05:07;;;;;;;3.30;1.30;;;16.90;78.90;;;;;;5063291;28;20078;-75
2022/11/06 09:07:33;;;;;;;3.25;1.30;;;17.00;78.90;;;;;;5062896;28;20035;-73
2022/11/06 09:09:58;;;;;;;7.07;1.58;;;17.00;78.70;;;;;;5065546;28;20024;-73
2022/11/06 09:12:24;;;;;;;3.00;1.23;;;17.00;78.70;;;;;;5067634;28;20068;-73
2022/11/06 09:14:49;;;;;;;2.42;1.13;;;17.10;78.70;;;;;;5067224;28;20107;-74
2022/11/06 09:17:15;;;;;;;4.63;1.45;;;17.10;78.60;;;;;;5067835;28;20749;-73
2022/11/06 09:19:40;;;;;;;3.15;1.20;;;17.10;78.50;;;;;;5066219;28;20028;-73
2022/11/06 09:22:07;;;;;;;3.45;1.15;;;17.10;78.40;;;;;;5067700;28;20102;-73
2022/11/06 09:24:32;;;;;;;4.78;1.50;;;17.10;78.50;;;;;;5067302;28;20519;-73
2022/11/06 09:26:58;;;;;;;3.65;1.20;;;17.10;78.50;;;;;;5067803;28;20028;-74
2022/11/06 09:29:23;;;;;;;1.95;1.00;;;17.10;78.50;;;;;;5067535;28;20025;-72
2022/11/06 09:31:49;;;;;;;3.58;1.30;;;17.10;78.60;;;;;;5064299;28;20649;-74
2022/11/06 09:34:14;;;;;;;2.28;1.10;;;17.10;78.60;;;;;;5062963;28;20028;-74
2022/11/06 09:36:40;;;;;;;3.63;1.15;;;17.10;78.60;;;;;;5064325;28;20029;-74
2022/11/06 09:39:05;;;;;;;3.38;1.30;;;17.10;78.70;;;;;;5065774;28;20115;-73
2022/11/06 09:42:00;;;;;;;2.50;1.10;;;17.00;78.60;;;;;;5066970;28;20526;-73
2022/11/06 09:44:28;;;;;;;4.35;1.20;;;17.10;78.70;;;;;;5046400;28;20025;-74
2022/11/06 09:46:56;;;;;;;2.85;1.15;;;17.10;78.80;;;;;;5047147;28;20056;-73
2022/11/06 09:49:34;;;;;;;3.15;1.30;;;17.10;78.80;;;;;;5062065;28;20392;-73
2022/11/06 09:52:11;;;;;;;2.80;1.00;;;17.10;78.80;;;;;;5061471;28;20124;-73
2022/11/06 09:54:41;;;;;;;3.15;1.20;;;17.10;78.90;;;;;;5062084;28;20032;-74
2022/11/06 09:57:18;;;;;;;1.88;1.02;;;17.20;79.50;;;;;;5062834;28;20032;-74
2022/11/06 09:59:45;;;;;;;2.03;1.10;;;17.10;78.60;;;;;;5046204;28;20564;-74
2022/11/06 10:02:30;;;;;;;3.65;1.40;;;17.20;78.10;;;;;;5061830;28;20145;-74
2022/11/06 10:05:00;;;;;;;3.42;1.30;;;17.20;78.20;;;;;;5062156;28;20024;-74
2022/11/06 10:07:32;;;;;;;2.70;1.10;;;17.20;77.90;;;;;;5046815;28;20025;-73
2022/11/06 10:10:00;;;;;;;3.58;1.33;;;17.20;77.80;;;;;;5062052;28;20029;-73
2022/11/06 10:12:41;;;;;;;2.35;1.13;;;17.20;77.80;;;;;;5046584;28;20405;-73
2022/11/06 10:15:35;;;;;;;2.83;1.02;;;17.20;77.80;;;;;;5046682;28;20025;-72
2022/11/06 10:18:20;;;;;;;2.90;1.10;;;17.10;78.20;;;;;;5046714;28;20048;-74
2022/11/06 10:21:08;;;;;;;3.53;1.10;;;17.00;78.30;;;;;;5046601;28;20025;-74
2022/11/06 10:23:47;;;;;;;2.75;1.00;;;17.00;78.50;;;;;;5045839;28;20025;-73
2022/11/06 10:26:26;;;;;;;2.97;1.05;;;16.90;78.60;;;;;;5064587;28;20585;-73
2022/11/06 10:29:03;;;;;;;2.13;0.98;;;17.00;78.90;;;;;;5066092;28;20024;-74
2022/11/06 10:31:34;;;;;;;2.05;1.08;;;16.90;79.10;;;;;;5066292;28;20024;-74
2022/11/06 10:34:12;;;;;;;1.98;0.90;;;16.90;79.20;;;;;;5064642;28;20032;-74
2022/11/06 10:36:43;;;;;;;2.08;0.90;;;16.80;79.20;;;;;;5064757;28;20025;-74
2022/11/06 10:39:15;;;;;;;2.65;0.95;;;16.80;79.50;;;;;;5064774;28;20139;-74
2022/11/06 10:41:45;;;;;;;3.90;1.20;;;16.80;79.50;;;;;;5064692;28;20037;-74
2022/11/06 10:44:24;;;;;;;3.13;1.08;;;16.80;79.50;;;;;;5065675;28;20625;-74
2022/11/06 10:46:59;;;;;;;3.15;1.10;;;16.70;79.70;;;;;;5064708;28;20115;-74
2022/11/06 10:49:54;;;;;;;2.42;1.20;;;16.70;79.70;;;;;;5065629;28;20016;-75
2022/11/06 10:52:34;;;;;;;3.35;1.13;;;16.70;79.90;;;;;;5063619;28;20024;-74
2022/11/06 10:55:18;;;;;;;1.95;1.10;;;16.70;80.00;;;;;;5065637;28;20031;-74
2022/11/06 10:58:02;;;;;;;2.83;1.20;;;16.70;80.20;;;;;;5065757;28;20055;-75
2022/11/06 11:00:28;;;;;;;2.55;1.15;;;16.60;80.30;;;;;;5065456;28;20503;-73
2022/11/06 11:02:56;;;;;;;2.53;1.05;;;16.60;80.40;;;;;;5064119;28;20032;-73
2022/11/06 11:05:24;;;;;;;1.95;1.02;;;16.60;80.00;;;;;;5064196;28;20029;-73
2022/11/06 11:07:51;;;;;;;3.08;1.10;;;16.60;80.00;;;;;;5065269;28;20029;-74
2022/11/06 11:10:22;;;;;;;2.53;1.05;;;16.60;79.90;;;;;;5064153;28;20067;-74
2022/11/06 11:12:48;;;;;;;;;;;16.60;80.00;;;;;;5065383;28;20032;-74
2022/11/06 11:15:19;;;;;;;2.00;1.10;;;16.60;80.00;;;;;;5063940;28;19909;-74
2022/11/06 11:18:10;;;;;;;2.10;1.00;;;16.60;80.20;;;;;;5064863;28;20294;-74
2022/11/06 11:20:41;;;;;;;2.60;1.02;;;16.60;80.30;;;;;;5065240;28;20524;-74
2022/11/06 11:23:20;;;;;;;3.30;1.10;;;16.60;80.10;;;;;;5064960;28;20040;-74
2022/11/06 11:25:51;;;;;;;2.25;1.10;;;16.60;80.00;;;;;;5062972;28;20035;-73
2022/11/06 11:28:33;;;;;;;9.27;2.03;;;16.60;80.00;;;;;;5063588;28;20082;-74
2022/11/06 11:31:07;;;;;;;13.25;2.10;;;16.50;79.00;;;;;;5063721;28;20116;-75
2022/11/06 11:33:33;;;;;;;11.05;2.35;;;16.50;79.00;;;;;;5064562;28;20291;-79
2022/11/06 11:36:01;;;;;;;16.27;1.95;;;16.50;78.90;;;;;;5063546;28;20532;-75
2022/11/06 11:38:27;;;;;;;11.18;1.88;;;16.40;79.00;;;;;;5062886;28;20123;-75
2022/11/06 11:41:10;;;;;;;10.07;1.80;;;16.50;78.90;;;;;;5063645;28;20029;-75
2022/11/06 11:43:36;;;;;;;9.10;1.70;;;16.50;78.90;;;;;;5064302;28;20032;-74
2022/11/06 11:46:04;;;;;;;8.95;2.10;;;16.50;78.90;;;;;;5057502;28;20027;-75
2022/11/06 11:48:46;;;;;;;4.85;1.55;;;16.50;79.20;;;;;;5071709;28;20036;-78
2022/11/06 11:51:38;;;;;;;8.40;1.40;;;16.60;79.00;;;;;;5044216;28;20024;-73
2022/11/06 11:54:13;;;;;;;9.15;1.35;;;16.60;79.00;;;;;;5060795;28;20484;-74
2022/11/06 11:56:52;;;;;;;9.07;1.90;;;16.60;79.60;;;;;;5061182;28;20071;-77
2022/11/06 11:59:24;;;;;;;5.35;1.58;;;16.70;79.60;;;;;;5063636;28;20454;-75
2022/11/06 12:01:51;;;;;;;6.60;1.30;;;16.70;79.50;;;;;;5062967;28;20032;-75
2022/11/06 12:04:30;;;;;;;7.15;1.50;;;16.80;79.60;;;;;;5064834;28;20024;-76
2022/11/06 12:07:05;;;;;;;8.45;1.88;;;16.90;80.90;;;;;;5064760;28;20580;-75
2022/11/06 12:09:40;;;;;;;5.03;1.63;;;17.00;80.80;;;;;;5064820;28;20032;-73
2022/11/06 12:12:25;;;;;;;6.80;1.63;;;17.20;81.30;;;;;;5064698;28;20089;-75
2022/11/06 12:15:27;;;;;;;7.43;1.45;;;17.40;81.00;;;;;;5063089;28;20034;-76
2022/11/06 12:18:01;;;;;;;5.72;1.60;;;17.50;81.00;;;;;;5062812;28;20530;-75
2022/11/06 12:20:48;;;;;;;7.68;1.65;;;17.70;80.30;;;;;;5064443;28;20044;-74
2022/11/06 12:23:25;;;;;;;6.88;2.00;;;17.80;80.10;;;;;;5064181;28;20029;-74
2022/11/06 12:26:10;;;;;;;7.78;1.95;;;17.80;80.00;;;;;;5064476;28;20667;-74
2022/11/06 12:28:39;;;;;;;9.18;2.22;;;17.90;79.90;;;;;;5064136;28;20024;-74
2022/11/06 12:31:40;;;;;;;7.72;1.80;;;18.00;79.90;;;;;;5063967;28;20034;-75
2022/11/06 12:34:12;;;;;;;7.40;1.67;;;18.00;80.10;;;;;;5062119;28;20119;-74
2022/11/06 12:36:44;;;;;;;7.95;1.85;;;18.10;80.20;;;;;;5062857;28;20056;-75
2022/11/06 12:39:19;;;;;;;7.88;1.70;;;18.10;80.00;;;;;;5062985;28;20033;-74
2022/11/06 12:41:49;;;;;;;8.80;2.08;;;18.10;79.90;;;;;;5063874;28;20032;-75
2022/11/06 12:44:16;;;;;;;7.90;1.65;;;18.10;80.30;;;;;;5062478;28;20028;-74
2022/11/06 12:46:54;;;;;;;8.15;2.20;;;18.20;80.10;;;;;;5067906;28;20024;-74
2022/11/06 12:49:31;;;;;;;6.95;1.70;;;18.20;78.60;;;;;;5067938;28;20020;-75
2022/11/06 12:52:14;;;;;;;7.05;2.05;;;18.00;78.80;;;;;;5066393;28;20216;-74
2022/11/06 12:54:47;;;;;;;8.02;2.63;;;17.90;79.80;;;;;;5067413;28;20059;-75
2022/11/06 12:57:43;;;;;;;7.15;2.15;;;17.70;80.60;;;;;;5066575;28;20067;-75
2022/11/06 13:00:21;;;;;;;8.60;2.10;;;17.60;81.10;;;;;;5067605;28;20033;-75
2022/11/06 13:03:33;;;;;;;7.68;2.10;;;17.60;80.50;;;;;;5067256;28;20071;-74
2022/11/06 13:05:58;;;;;;;6.70;1.88;;;17.50;81.30;;;;;;5067756;28;20366;-75
2022/11/06 13:08:34;;;;;;;6.55;1.95;;;17.50;81.70;;;;;;5067543;28;20110;-75
2022/11/06 13:11:15;;;;;;;6.25;1.80;;;17.40;81.50;;;;;;5067516;28;20025;-75
2022/11/06 13:14:08;;;;;;;6.18;1.75;;;17.40;82.10;;;;;;5066904;28;20040;-75
2022/11/06 13:17:07;;;;;;;7.55;2.03;;;17.40;82.30;;;;;;5067361;28;20039;-74
2022/11/06 13:19:38;;;;;;;8.70;2.10;;;17.40;82.60;;;;;;5067316;28;20029;-75